Time;durP1;ratioP1;P1;durP2;ratioP2;P2;SDS_P1;SDS_P2;PMS_P1;PMS_P2;Temp;Humidity;BMP_temperature;BMP_pressure;BME280_temperature;BME280_humidity;BME280_pressure;Samples;Min_cycle;Max_cycle;Signal;HPM_P1;HPM_P2
2022/08/04 00:01:21;;;;;;;4.90;4.13;;;23.40;96.00;;;;;;5014698;28;20909;-89
2022/08/04 00:04:17;;;;;;;3.47;2.47;;;23.30;96.00;;;;;;5018827;28;21023;-89
2022/08/04 00:07:01;;;;;;;3.67;3.03;;;23.40;93.90;;;;;;5015151;28;20473;-90
2022/08/04 00:09:40;;;;;;;6.67;3.10;;;23.50;93.00;;;;;;5018170;28;20535;-89
2022/08/04 00:12:07;;;;;;;4.93;3.00;;;23.60;95.30;;;;;;5006645;28;20429;-89
2022/08/04 00:14:39;;;;;;;5.73;3.30;;;23.60;96.00;;;;;;5001996;28;20440;-90
2022/08/04 00:17:06;;;;;;;3.23;2.47;;;23.60;96.20;;;;;;5001611;28;20502;-90
2022/08/04 00:19:54;;;;;;;4.93;2.57;;;23.30;94.90;;;;;;5002874;28;20442;-90
2022/08/04 00:22:25;;;;;;;2.37;2.17;;;23.30;94.50;;;;;;4998566;28;20443;-90
2022/08/04 00:24:51;;;;;;;2.60;2.20;;;23.40;93.40;;;;;;5010310;28;20440;-89
2022/08/04 00:27:17;;;;;;;3.60;1.70;;;23.70;92.80;;;;;;4996388;28;20457;-89
2022/08/04 00:29:45;;;;;;;2.63;2.23;;;23.80;91.90;;;;;;5019183;28;20799;-89
2022/08/04 00:32:11;;;;;;;6.30;2.63;;;24.00;91.00;;;;;;4997094;28;20285;-88
2022/08/04 00:34:38;;;;;;;2.33;2.00;;;24.10;90.30;;;;;;5026129;28;20514;-89
2022/08/04 00:37:05;;;;;;;2.80;1.63;;;24.20;89.70;;;;;;5028471;28;20511;-88
2022/08/04 00:39:31;;;;;;;5.07;2.10;;;24.20;88.40;;;;;;5016324;28;20460;-90
2022/08/04 00:42:33;;;;;;;4.80;2.87;;;24.20;89.20;;;;;;5019167;28;20432;-90
2022/08/04 00:45:11;;;;;;;4.13;3.17;;;24.10;91.20;;;;;;5028398;28;20447;-89
2022/08/04 00:48:11;;;;;;;4.30;2.70;;;24.00;92.00;;;;;;5005337;28;21211;-89
2022/08/04 00:50:55;;;;;;;4.50;2.80;;;23.90;92.20;;;;;;4967983;28;20477;-88
2022/08/04 00:53:43;;;;;;;5.30;3.00;;;23.90;92.60;;;;;;5020046;28;20458;-89
2022/08/04 00:56:55;;;;;;;5.00;2.50;;;23.70;93.90;;;;;;5004288;28;20488;-89
2022/08/04 01:00:02;;;;;;;6.00;3.03;;;23.50;93.20;;;;;;5015834;28;20441;-88
2022/08/04 01:03:07;;;;;;;3.07;2.47;;;23.50;93.00;;;;;;5016116;28;20437;-88
2022/08/04 01:06:15;;;;;;;6.13;2.40;;;23.50;93.30;;;;;;5036443;28;20426;-89
2022/08/04 01:08:59;;;;;;;2.60;2.13;;;23.40;93.10;;;;;;5017515;28;20521;-89
2022/08/04 01:11:49;;;;;;;2.57;2.30;;;23.40;92.60;;;;;;5005614;28;20998;-90
2022/08/04 01:14:40;;;;;;;4.80;2.30;;;23.40;92.80;;;;;;5018690;28;20555;-90
2022/08/04 01:17:19;;;;;;;1.87;1.77;;;23.50;92.40;;;;;;5001014;28;20487;-89
2022/08/04 01:20:03;;;;;;;5.80;2.73;;;23.50;92.40;;;;;;5009567;28;20829;-89
2022/08/04 01:22:31;;;;;;;4.70;2.87;;;23.40;92.30;;;;;;5002011;28;20512;-88
2022/08/04 01:25:35;;;;;;;3.80;2.77;;;23.40;92.30;;;;;;5001199;28;20480;-90
2022/08/04 01:28:21;;;;;;;3.00;2.70;;;23.40;92.90;;;;;;5001236;28;20540;-90
2022/08/04 01:30:51;;;;;;;4.67;2.27;;;23.30;93.20;;;;;;5002681;28;20449;-89
2022/08/04 01:33:18;;;;;;;2.70;2.50;;;23.30;93.50;;;;;;5004280;28;20448;-88
2022/08/04 01:35:50;;;;;;;7.87;3.00;;;23.10;93.50;;;;;;5014040;28;20858;-90
2022/08/04 01:38:28;;;;;;;8.10;4.03;;;23.20;93.20;;;;;;5011070;28;21250;-90
2022/08/04 01:40:58;;;;;;;5.20;2.93;;;23.20;93.50;;;;;;5013124;28;20445;-90
2022/08/04 01:43:26;;;;;;;6.70;3.03;;;23.20;93.20;;;;;;5003260;28;20451;-90
2022/08/04 01:45:57;;;;;;;3.67;3.23;;;23.30;93.90;;;;;;5015603;28;20562;-91
2022/08/04 01:48:24;;;;;;;5.10;3.47;;;23.20;94.30;;;;;;5000439;28;20469;-91
2022/08/04 01:56:01;;;;;;;4.13;2.73;;;22.50;97.20;;;;;;5044776;28;20986;-89
2022/08/04 01:58:32;;;;;;;3.73;2.50;;;22.40;97.80;;;;;;5051606;28;20435;-89
2022/08/04 02:01:05;;;;;;;4.43;2.70;;;22.40;98.80;;;;;;5056355;28;20434;-89
2022/08/04 02:03:32;;;;;;;3.13;2.30;;;22.20;98.50;;;;;;5054481;28;20451;-90
2022/08/04 02:06:30;;;;;;;2.77;2.47;;;22.40;97.90;;;;;;5048418;28;20439;-90
2022/08/04 02:09:14;;;;;;;2.50;2.30;;;22.40;97.40;;;;;;5048006;28;20466;-90
2022/08/04 02:11:45;;;;;;;2.70;2.30;;;22.50;97.10;;;;;;5042389;28;20510;-90
2022/08/04 02:14:39;;;;;;;6.47;2.47;;;22.70;97.00;;;;;;5068490;28;20444;-89
2022/08/04 02:17:23;;;;;;;4.80;2.27;;;22.90;96.50;;;;;;5043849;28;20442;-90
2022/08/04 02:20:00;;;;;;;2.77;2.33;;;23.00;95.70;;;;;;5049754;28;20986;-90
2022/08/04 02:22:27;;;;;;;3.23;2.40;;;23.10;95.00;;;;;;5050226;28;20478;-89
2022/08/04 02:25:06;;;;;;;3.83;2.43;;;23.00;94.90;;;;;;5048303;28;20438;-89
2022/08/04 02:27:59;;;;;;;2.17;1.97;;;23.00;94.50;;;;;;5049309;28;20497;-90
2022/08/04 02:30:31;;;;;;;3.00;2.27;;;23.00;93.90;;;;;;5050094;28;20435;-90
2022/08/04 02:33:03;;;;;;;7.00;2.17;;;23.10;93.70;;;;;;5049013;28;20443;-90
2022/08/04 02:35:35;;;;;;;2.70;2.00;;;23.20;93.20;;;;;;5047321;28;20466;-88
2022/08/04 02:38:22;;;;;;;2.07;1.77;;;23.30;92.80;;;;;;5046090;28;20427;-87
2022/08/04 02:40:50;;;;;;;5.20;2.17;;;23.30;92.70;;;;;;5046838;28;20451;-87
2022/08/04 02:43:19;;;;;;;5.03;2.77;;;23.30;92.20;;;;;;5048407;28;20448;-87
2022/08/04 02:45:46;;;;;;;2.90;1.80;;;23.30;92.00;;;;;;5054643;28;20439;-88
2022/08/04 02:48:14;;;;;;;3.23;2.53;;;23.40;92.00;;;;;;5043221;28;20444;-87
2022/08/04 02:50:41;;;;;;;4.03;2.43;;;23.30;91.90;;;;;;5042611;28;20508;-88
2022/08/04 02:53:14;;;;;;;7.80;2.97;;;23.20;92.00;;;;;;5037616;28;20459;-87
2022/08/04 02:55:43;;;;;;;4.80;2.30;;;23.20;93.10;;;;;;5049253;28;20554;-88
2022/08/04 02:58:11;;;;;;;4.00;2.57;;;23.10;93.00;;;;;;5035216;28;20432;-87
2022/08/04 03:00:37;;;;;;;3.00;2.67;;;23.00;93.70;;;;;;5040054;28;20562;-87
2022/08/04 03:03:12;;;;;;;3.60;2.70;;;22.90;94.30;;;;;;5032129;28;21600;-89
2022/08/04 03:05:55;;;;;;;4.67;2.63;;;22.70;94.80;;;;;;5029881;28;20464;-87
2022/08/04 03:08:40;;;;;;;5.33;2.27;;;22.50;95.20;;;;;;5024802;28;20435;-89
2022/08/04 03:11:33;;;;;;;6.80;2.70;;;22.40;95.40;;;;;;5034813;28;20439;-88
2022/08/04 03:14:34;;;;;;;6.10;3.00;;;22.30;96.10;;;;;;5037976;28;20803;-86
2022/08/04 03:17:17;;;;;;;4.10;2.40;;;22.20;96.20;;;;;;5031835;28;21665;-86
2022/08/04 03:19:58;;;;;;;6.87;2.70;;;22.10;96.60;;;;;;5027716;28;20469;-89
2022/08/04 03:22:54;;;;;;;2.73;2.03;;;22.10;97.30;;;;;;5025713;28;20463;-88
2022/08/04 03:25:53;;;;;;;4.90;2.00;;;22.10;96.60;;;;;;5033789;28;20455;-89
2022/08/04 03:28:41;;;;;;;3.33;2.20;;;22.10;96.20;;;;;;5030760;28;21317;-87
2022/08/04 03:31:18;;;;;;;2.67;2.10;;;22.10;95.70;;;;;;5029094;28;20454;-89
2022/08/04 03:33:56;;;;;;;2.70;2.10;;;22.10;95.90;;;;;;5036015;28;20812;-89
2022/08/04 03:36:53;;;;;;;3.10;2.70;;;22.20;96.10;;;;;;5040211;28;20532;-88
2022/08/04 03:39:28;;;;;;;2.60;2.40;;;22.20;96.00;;;;;;5041161;28;21016;-90
2022/08/04 03:42:38;;;;;;;3.60;2.60;;;22.20;96.60;;;;;;5040217;28;20455;-89
2022/08/04 03:45:32;;;;;;;4.30;2.60;;;22.10;97.10;;;;;;5003589;28;20439;-89
2022/08/04 03:48:22;;;;;;;3.60;2.37;;;22.00;97.80;;;;;;5040282;28;20435;-90
2022/08/04 03:53:07;;;;;;;5.17;3.13;;;21.90;97.90;;;;;;5042511;28;20828;-90
2022/08/04 03:54:06;;;;;;;6.20;2.60;;;21.90;98.10;;;;;;5041071;28;20490;-90
2022/08/04 03:56:48;;;;;;;3.37;2.23;;;21.90;99.50;;;;;;5037418;28;20468;-91
2022/08/04 03:59:16;;;;;;;4.53;2.47;;;21.70;99.90;;;;;;5039051;28;20461;-90
2022/08/04 04:02:19;;;;;;;2.90;2.37;;;21.60;99.90;;;;;;5046620;28;20494;-89
2022/08/04 04:05:26;;;;;;;6.63;3.17;;;21.50;99.90;;;;;;5044030;28;20426;-91
2022/08/04 04:08:01;;;;;;;4.60;2.73;;;21.40;99.90;;;;;;5035616;28;20462;-92
2022/08/04 04:10:51;;;;;;;3.50;2.67;;;21.40;99.90;;;;;;5038069;28;20431;-89
2022/08/04 04:13:44;;;;;;;5.07;2.60;;;21.40;99.90;;;;;;5034288;28;20455;-87
2022/08/04 04:16:35;;;;;;;3.77;2.20;;;21.40;99.90;;;;;;5029712;28;21589;-89
2022/08/04 04:19:10;;;;;;;4.97;3.20;;;21.30;99.90;;;;;;5033975;28;20849;-89
2022/08/04 04:21:52;;;;;;;3.87;2.70;;;21.20;99.90;;;;;;5034048;28;20848;-90
2022/08/04 04:24:39;;;;;;;7.10;3.47;;;21.20;99.90;;;;;;5034669;28;20439;-89
2022/08/04 04:27:05;;;;;;;5.43;2.63;;;21.30;99.90;;;;;;5030567;28;20431;-89
2022/08/04 04:29:48;;;;;;;3.07;2.77;;;21.30;99.90;;;;;;5036843;28;20460;-89
2022/08/04 04:32:39;;;;;;;5.80;3.20;;;21.30;99.90;;;;;;5036295;28;20209;-90
2022/08/04 04:35:26;;;;;;;3.73;2.80;;;21.40;99.90;;;;;;5030995;28;20463;-90
2022/08/04 04:38:06;;;;;;;4.00;3.17;;;21.40;99.90;;;;;;5026701;28;20448;-90
2022/08/04 04:40:34;;;;;;;4.73;2.70;;;22.10;99.90;;;;;;5038954;28;20431;-90
2022/08/04 04:43:17;;;;;;;5.17;2.63;;;22.90;99.90;;;;;;5039414;28;20447;-90
2022/08/04 04:45:48;;;;;;;6.40;3.07;;;24.10;99.90;;;;;;5040446;28;21448;-89
2022/08/04 04:48:53;;;;;;;6.30;2.73;;;25.80;99.90;;;;;;5035365;28;20423;-90
2022/08/04 04:51:32;;;;;;;7.63;3.90;;;27.40;95.10;;;;;;5040850;28;20528;-90
2022/08/04 04:54:18;;;;;;;9.13;3.57;;;29.20;90.90;;;;;;5031604;28;20455;-89
2022/08/04 04:56:49;;;;;;;6.83;2.73;;;30.60;82.10;;;;;;5041393;28;20561;-89
2022/08/04 04:59:20;;;;;;;12.03;2.63;;;31.80;75.00;;;;;;5051802;28;20431;-86
2022/08/04 05:02:26;;;;;;;4.17;2.73;;;31.90;71.00;;;;;;5047694;28;20510;-85
2022/08/04 05:05:06;;;;;;;9.83;3.43;;;32.80;65.70;;;;;;5047764;28;20469;-87
2022/08/04 05:08:13;;;;;;;6.33;2.60;;;33.70;62.80;;;;;;5052148;28;20482;-88
2022/08/04 05:11:08;;;;;;;3.90;3.50;;;34.60;58.90;;;;;;4981907;28;20486;-88
2022/08/04 05:13:45;;;;;;;3.90;3.60;;;35.80;57.60;;;;;;4961107;28;20459;-89
2022/08/04 05:16:33;;;;;;;5.80;4.80;;;37.40;54.70;;;;;;5016834;28;20794;-87
2022/08/04 05:19:11;;;;;;;6.47;4.73;;;38.40;51.50;;;;;;5047382;28;20927;-86
2022/08/04 05:21:50;;;;;;;6.17;5.47;;;38.70;49.90;;;;;;5055900;28;20491;-87
2022/08/04 05:24:19;;;;;;;6.90;6.33;;;39.60;48.40;;;;;;5036706;28;20477;-87
2022/08/04 05:26:51;;;;;;;7.73;7.03;;;40.50;46.00;;;;;;5038546;28;21123;-88
2022/08/04 05:29:34;;;;;;;10.60;6.97;;;40.00;45.30;;;;;;5037582;28;20411;-88
2022/08/04 05:32:05;;;;;;;15.17;7.53;;;40.50;44.50;;;;;;5037213;28;20489;-87
2022/08/04 05:34:39;;;;;;;9.77;8.87;;;40.80;43.50;;;;;;5056770;28;20392;-87
2022/08/04 05:37:10;;;;;;;9.30;8.67;;;41.30;41.80;;;;;;5055949;28;20849;-88
2022/08/04 05:39:46;;;;;;;8.47;7.87;;;42.10;40.90;;;;;;5057775;28;20419;-87
2022/08/04 05:42:13;;;;;;;9.67;9.00;;;42.80;40.30;;;;;;5057238;28;20427;-87
2022/08/04 05:44:39;;;;;;;10.33;9.63;;;43.80;39.10;;;;;;5057035;28;20432;-88
2022/08/04 05:47:06;;;;;;;11.37;10.57;;;43.60;37.60;;;;;;5056668;28;20428;-89
2022/08/04 05:49:32;;;;;;;12.47;11.37;;;43.20;38.20;;;;;;5039690;28;20475;-89
2022/08/04 05:52:03;;;;;;;12.30;11.60;;;43.40;37.80;;;;;;5035138;28;20433;-87
2022/08/04 05:54:31;;;;;;;11.37;10.57;;;43.20;38.80;;;;;;5035072;28;20439;-89
2022/08/04 05:56:58;;;;;;;11.00;10.10;;;43.80;37.50;;;;;;5036450;28;20492;-88
2022/08/04 05:59:25;;;;;;;13.33;12.13;;;45.10;36.80;;;;;;5056872;28;20514;-88
2022/08/04 06:01:55;;;;;;;12.70;12.10;;;45.70;35.80;;;;;;5048939;28;20448;-85
2022/08/04 06:04:23;;;;;;;13.17;12.10;;;44.50;36.20;;;;;;5049307;28;20435;-88
2022/08/04 06:06:49;;;;;;;12.37;11.67;;;44.50;35.90;;;;;;5050367;28;20434;-85
2022/08/04 06:09:15;;;;;;;13.00;12.20;;;44.00;36.80;;;;;;5057379;28;20497;-86
2022/08/04 06:11:43;;;;;;;12.87;11.70;;;43.50;36.90;;;;;;5052354;28;20435;-83
2022/08/04 06:14:12;;;;;;;13.93;12.90;;;42.40;36.80;;;;;;5042640;28;21082;-83
2022/08/04 06:16:41;;;;;;;12.43;11.70;;;41.40;38.10;;;;;;5048599;28;20506;-83
2022/08/04 06:19:09;;;;;;;12.70;12.00;;;42.00;38.00;;;;;;5046748;28;20422;-83
2022/08/04 06:21:38;;;;;;;13.97;12.83;;;42.90;38.00;;;;;;5047793;28;20428;-83
2022/08/04 06:24:09;;;;;;;11.83;11.13;;;42.10;37.30;;;;;;5042125;28;20545;-86
2022/08/04 06:26:35;;;;;;;14.60;11.00;;;41.90;38.40;;;;;;5051825;28;20428;-84
2022/08/04 06:29:03;;;;;;;11.73;10.77;;;42.50;37.80;;;;;;5045974;28;20440;-83
2022/08/04 06:31:42;;;;;;;12.50;11.90;;;44.10;37.70;;;;;;5055336;28;20809;-82
2022/08/04 06:34:10;;;;;;;13.03;12.07;;;44.60;35.80;;;;;;5048452;28;20434;-84
2022/08/04 06:36:37;;;;;;;12.97;12.37;;;45.10;34.40;;;;;;5051355;28;20815;-84
2022/08/04 06:39:04;;;;;;;14.87;14.07;;;46.20;34.10;;;;;;5051950;28;20535;-85
2022/08/04 06:41:31;;;;;;;16.53;15.50;;;46.50;32.50;;;;;;5050309;28;20455;-85
2022/08/04 06:44:07;;;;;;;18.53;17.43;;;47.20;33.00;;;;;;5052618;28;20423;-85
2022/08/04 06:46:40;;;;;;;18.40;17.60;;;48.90;31.80;;;;;;5057321;28;20434;-84
2022/08/04 06:49:06;;;;;;;19.40;18.20;;;49.60;30.00;;;;;;5053549;28;20435;-86
2022/08/04 06:51:34;;;;;;;20.07;18.87;;;49.70;29.10;;;;;;5053455;28;20491;-86
2022/08/04 06:54:00;;;;;;;20.93;19.83;;;49.90;29.60;;;;;;5051467;28;20452;-84
2022/08/04 06:56:28;;;;;;;24.57;23.57;;;50.10;28.20;;;;;;5052385;28;22081;-85
2022/08/04 06:58:54;;;;;;;22.73;21.53;;;48.80;28.10;;;;;;5053195;28;20189;-85
2022/08/04 07:01:21;;;;;;;20.63;19.63;;;48.80;29.10;;;;;;5053804;28;20482;-86
2022/08/04 07:03:47;;;;;;;20.10;19.20;;;48.10;29.00;;;;;;5052399;28;20455;-83
2022/08/04 07:06:13;;;;;;;19.23;18.43;;;48.10;28.10;;;;;;5049133;28;20431;-83
2022/08/04 07:08:39;;;;;;;22.83;21.63;;;49.30;28.20;;;;;;5051165;28;20423;-86
2022/08/04 07:11:05;;;;;;;17.87;17.17;;;47.00;26.20;;;;;;5051754;28;20192;-83
2022/08/04 07:13:32;;;;;;;16.90;15.93;;;44.60;28.50;;;;;;5048639;28;20213;-83
2022/08/04 07:15:58;;;;;;;16.63;15.57;;;42.80;28.90;;;;;;5050329;28;20462;-82
2022/08/04 07:18:24;;;;;;;15.50;14.70;;;43.60;30.70;;;;;;5056950;28;20436;-85
2022/08/04 07:20:50;;;;;;;15.93;15.03;;;45.60;29.50;;;;;;5047678;28;20926;-81
2022/08/04 07:23:22;;;;;;;15.60;14.90;;;45.90;29.10;;;;;;5045448;28;20207;-82
2022/08/04 07:25:56;;;;;;;16.93;16.23;;;46.10;28.50;;;;;;5049023;28;20427;-82
2022/08/04 07:28:27;;;;;;;15.07;14.10;;;44.30;29.10;;;;;;5044701;28;20462;-84
2022/08/04 07:30:54;;;;;;;15.03;13.90;;;44.50;29.20;;;;;;5049747;28;20442;-83
2022/08/04 07:33:20;;;;;;;16.33;15.20;;;44.80;29.30;;;;;;5046928;28;20454;-82
2022/08/04 07:35:50;;;;;;;17.83;16.80;;;45.80;28.60;;;;;;5049665;28;20463;-83
2022/08/04 07:38:16;;;;;;;17.03;15.77;;;45.30;28.80;;;;;;5050633;28;20420;-82
2022/08/04 07:40:42;;;;;;;16.73;15.83;;;44.40;29.50;;;;;;5044072;28;20939;-84
2022/08/04 07:43:08;;;;;;;14.93;14.23;;;42.30;29.60;;;;;;5043680;28;20461;-83
2022/08/04 07:45:33;;;;;;;16.00;15.30;;;43.90;30.60;;;;;;5041357;28;20429;-83
2022/08/04 07:48:00;;;;;;;16.40;15.70;;;45.80;29.90;;;;;;5041106;28;20180;-81
2022/08/04 07:50:27;;;;;;;18.33;17.33;;;47.40;28.70;;;;;;5049749;28;20235;-82
2022/08/04 07:52:53;;;;;;;19.03;18.23;;;47.40;29.10;;;;;;5046042;28;20469;-82
2022/08/04 07:55:20;;;;;;;18.23;17.33;;;46.20;29.40;;;;;;5047427;28;20497;-82
2022/08/04 07:57:45;;;;;;;20.90;18.87;;;46.90;28.90;;;;;;5045059;28;20484;-83
2022/08/04 08:00:13;;;;;;;18.07;16.87;;;48.10;27.70;;;;;;5045260;28;20487;-81
2022/08/04 08:02:40;;;;;;;20.57;19.47;;;47.70;27.50;;;;;;5050009;28;20206;-83
2022/08/04 08:05:09;;;;;;;20.27;19.27;;;49.30;28.00;;;;;;5043362;28;20433;-83
2022/08/04 08:07:35;;;;;;;22.70;21.33;;;49.20;28.30;;;;;;5039775;28;20525;-80
2022/08/04 08:10:00;;;;;;;18.97;18.10;;;47.80;27.30;;;;;;5043848;28;20431;-81
2022/08/04 08:12:27;;;;;;;21.17;20.27;;;47.10;28.20;;;;;;5040534;28;20196;-82
2022/08/04 08:14:53;;;;;;;19.73;18.53;;;45.90;28.40;;;;;;5045625;28;20181;-80
2022/08/04 08:17:19;;;;;;;19.77;18.70;;;48.00;27.70;;;;;;5049737;28;20795;-80
2022/08/04 08:19:45;;;;;;;19.67;18.77;;;50.20;27.00;;;;;;5051518;28;20434;-84
2022/08/04 08:22:11;;;;;;;20.80;19.13;;;49.70;26.70;;;;;;5050642;28;20197;-83
2022/08/04 08:24:37;;;;;;;16.73;15.93;;;48.40;26.90;;;;;;5044009;28;20174;-81
2022/08/04 08:27:03;;;;;;;19.97;19.07;;;47.90;27.90;;;;;;5046308;28;20431;-82
2022/08/04 08:29:31;;;;;;;17.20;16.40;;;48.70;27.50;;;;;;5041763;28;20739;-82
2022/08/04 08:31:58;;;;;;;20.40;19.30;;;49.10;26.70;;;;;;5054121;28;20446;-82
2022/08/04 08:34:25;;;;;;;20.67;19.47;;;48.60;26.80;;;;;;5039755;28;20427;-82
2022/08/04 08:37:03;;;;;;;17.97;16.87;;;48.20;26.90;;;;;;5052543;28;20459;-82
2022/08/04 08:39:50;;;;;;;18.73;17.70;;;47.80;27.00;;;;;;5042645;28;20438;-81
2022/08/04 08:42:24;;;;;;;19.97;18.87;;;46.00;28.50;;;;;;5048492;28;20443;-81
2022/08/04 08:45:04;;;;;;;16.77;15.97;;;45.30;28.90;;;;;;5040731;28;20430;-82
2022/08/04 08:47:47;;;;;;;17.47;16.43;;;43.80;30.20;;;;;;5064197;28;20454;-82
2022/08/04 08:50:22;;;;;;;16.10;15.23;;;44.00;29.70;;;;;;5060225;28;20816;-81
2022/08/04 08:53:17;;;;;;;16.03;15.00;;;44.20;30.00;;;;;;5061076;28;20451;-83
2022/08/04 08:56:24;;;;;;;23.20;22.03;;;45.40;29.30;;;;;;5043686;28;20459;-82
2022/08/04 08:59:04;;;;;;;21.80;20.60;;;45.90;29.00;;;;;;5041480;28;20940;-81
2022/08/04 09:02:01;;;;;;;22.73;21.60;;;45.20;28.60;;;;;;5055064;28;21312;-82
2022/08/04 09:04:59;;;;;;;29.83;28.63;;;47.00;28.30;;;;;;5060991;28;20492;-81
2022/08/04 09:07:39;;;;;;;27.23;25.90;;;46.60;28.70;;;;;;5057478;28;20432;-82
2022/08/04 09:10:07;;;;;;;27.53;26.20;;;46.10;28.40;;;;;;5053205;28;20432;-81
2022/08/04 09:12:40;;;;;;;29.97;28.00;;;45.50;28.70;;;;;;5059177;28;20446;-83
2022/08/04 09:15:17;;;;;;;30.00;27.83;;;45.10;28.60;;;;;;5058109;28;20457;-84
2022/08/04 09:17:48;;;;;;;26.63;25.23;;;44.10;29.20;;;;;;5058737;28;20452;-84
2022/08/04 09:20:33;;;;;;;26.60;25.60;;;44.30;29.70;;;;;;5060941;28;20422;-84
2022/08/04 09:23:14;;;;;;;28.00;26.60;;;45.20;29.10;;;;;;5056130;28;20435;-83
2022/08/04 09:25:48;;;;;;;29.07;27.57;;;44.00;29.20;;;;;;5058540;28;20454;-84
2022/08/04 09:28:23;;;;;;;27.77;26.33;;;45.10;29.60;;;;;;5051530;28;20434;-84
2022/08/04 09:31:08;;;;;;;29.13;27.73;;;45.30;29.30;;;;;;5061773;28;20443;-83
2022/08/04 09:33:46;;;;;;;30.47;29.20;;;45.30;29.00;;;;;;5050862;28;20451;-83
2022/08/04 09:36:35;;;;;;;28.97;27.67;;;44.00;29.00;;;;;;5061449;28;20865;-84
2022/08/04 09:39:22;;;;;;;29.47;27.60;;;43.40;29.70;;;;;;5057778;28;20491;-83
2022/08/04 09:42:18;;;;;;;29.50;27.83;;;42.80;30.70;;;;;;5063414;28;20983;-84
2022/08/04 09:45:01;;;;;;;28.83;27.43;;;43.40;30.30;;;;;;5060547;28;20428;-84
2022/08/04 09:48:06;;;;;;;26.23;24.83;;;43.70;30.00;;;;;;5050556;28;20444;-84
2022/08/04 09:50:34;;;;;;;23.17;22.07;;;44.00;29.80;;;;;;5028954;28;20779;-84
2022/08/04 09:53:09;;;;;;;21.77;20.87;;;44.10;29.60;;;;;;5059942;28;20961;-84
2022/08/04 09:55:44;;;;;;;28.87;27.17;;;43.80;29.60;;;;;;5057871;28;20538;-84
2022/08/04 09:58:32;;;;;;;29.77;28.00;;;43.90;29.50;;;;;;5055871;28;20433;-84
2022/08/04 10:01:02;;;;;;;30.53;29.03;;;43.20;30.00;;;;;;5061260;28;20458;-85
2022/08/04 10:03:33;;;;;;;29.97;28.60;;;44.20;29.50;;;;;;5055214;28;20549;-82
2022/08/04 10:06:07;;;;;;;28.97;27.27;;;43.60;28.60;;;;;;5060703;28;20943;-84
2022/08/04 10:09:03;;;;;;;28.10;26.27;;;42.40;30.40;;;;;;5056615;28;20910;-82
2022/08/04 10:11:47;;;;;;;27.50;26.30;;;42.20;30.80;;;;;;5050103;28;20441;-82
2022/08/04 10:14:46;;;;;;;27.17;25.87;;;42.50;30.30;;;;;;5058343;28;20423;-84
2022/08/04 10:17:50;;;;;;;27.83;26.33;;;41.00;31.80;;;;;;5056497;28;20440;-84
2022/08/04 10:20:19;;;;;;;28.10;26.90;;;43.20;30.60;;;;;;5050061;28;20428;-84
2022/08/04 10:23:04;;;;;;;27.60;26.30;;;42.60;29.40;;;;;;5065961;28;20475;-83
2022/08/04 10:25:34;;;;;;;25.60;24.50;;;42.70;30.10;;;;;;5054779;28;20431;-83
2022/08/04 10:28:05;;;;;;;27.03;25.57;;;41.10;30.30;;;;;;5059268;28;20427;-83
2022/08/04 10:30:34;;;;;;;29.23;27.60;;;40.90;31.20;;;;;;5050650;28;20424;-83
2022/08/04 10:33:10;;;;;;;26.83;25.63;;;41.10;31.80;;;;;;5061097;28;20436;-84
2022/08/04 10:35:49;;;;;;;13.40;12.70;;;40.60;31.60;;;;;;5056681;28;20449;-84
2022/08/04 10:38:31;;;;;;;12.80;12.30;;;39.60;33.50;;;;;;5052756;28;20481;-84
2022/08/04 10:41:08;;;;;;;22.90;21.80;;;39.60;33.70;;;;;;5058340;28;20429;-84
2022/08/04 10:44:09;;;;;;;11.93;11.43;;;39.50;34.50;;;;;;5061137;28;20475;-84
2022/08/04 10:46:43;;;;;;;14.13;13.40;;;38.60;34.80;;;;;;5020209;28;20450;-83
2022/08/04 10:49:20;;;;;;;14.00;13.17;;;37.60;36.30;;;;;;5060163;28;20492;-84
2022/08/04 10:51:45;;;;;;;12.80;12.20;;;37.20;36.10;;;;;;5060788;28;20453;-83
2022/08/04 10:54:16;;;;;;;13.13;12.10;;;37.10;36.70;;;;;;5062206;28;21042;-85
2022/08/04 10:57:07;;;;;;;11.30;10.70;;;36.90;36.90;;;;;;5052750;28;20566;-84
2022/08/04 10:59:52;;;;;;;11.43;10.70;;;37.10;37.90;;;;;;5080693;22;20571;-87
2022/08/04 11:02:42;;;;;;;12.10;11.27;;;37.00;37.40;;;;;;5071314;28;20432;-84
2022/08/04 11:05:19;;;;;;;11.33;10.73;;;36.90;37.20;;;;;;5070699;28;20784;-87
2022/08/04 11:07:49;;;;;;;11.47;10.97;;;36.50;37.10;;;;;;5068095;28;20420;-87
2022/08/04 11:10:19;;;;;;;12.03;11.20;;;36.60;37.60;;;;;;5079788;28;20452;-88
2022/08/04 11:12:51;;;;;;;11.27;10.63;;;36.70;36.70;;;;;;5076588;28;20427;-87
2022/08/04 11:15:24;;;;;;;11.13;10.43;;;36.70;36.20;;;;;;5078370;28;20486;-88
2022/08/04 11:17:56;;;;;;;11.20;10.47;;;37.30;36.50;;;;;;5070582;28;20425;-88
2022/08/04 11:20:27;;;;;;;11.90;10.83;;;37.60;36.70;;;;;;5065702;28;20429;-88
2022/08/04 11:23:05;;;;;;;10.90;10.23;;;37.40;35.40;;;;;;5079138;28;20429;-87
2022/08/04 11:25:37;;;;;;;10.20;9.40;;;37.10;35.60;;;;;;5077363;28;20447;-87
2022/08/04 11:28:26;;;;;;;10.70;10.17;;;36.40;35.60;;;;;;5079845;28;20498;-87
2022/08/04 11:31:02;;;;;;;10.13;9.53;;;36.30;35.80;;;;;;5063380;28;20512;-87
2022/08/04 11:33:36;;;;;;;11.77;10.90;;;36.40;36.30;;;;;;5069344;28;21455;-88
2022/08/04 11:36:04;;;;;;;9.73;9.23;;;36.60;35.20;;;;;;5072016;28;20485;-87
2022/08/04 11:38:55;;;;;;;10.70;9.90;;;36.70;35.40;;;;;;5082082;28;20456;-87
2022/08/04 11:41:47;;;;;;;10.60;10.00;;;36.80;34.50;;;;;;5080275;28;20412;-87
2022/08/04 11:44:46;;;;;;;10.53;9.93;;;37.20;35.30;;;;;;5081506;28;20427;-86
2022/08/04 11:47:25;;;;;;;10.07;9.43;;;37.10;34.80;;;;;;5073289;28;20852;-87
2022/08/04 11:50:26;;;;;;;10.67;9.90;;;37.10;35.40;;;;;;5071236;28;20503;-88
2022/08/04 11:52:55;;;;;;;10.20;9.60;;;36.40;35.10;;;;;;5062868;28;20441;-88
2022/08/04 11:55:24;;;;;;;9.90;9.40;;;36.20;33.60;;;;;;5081277;28;20518;-88
2022/08/04 11:57:50;;;;;;;9.70;9.30;;;36.40;34.60;;;;;;5068332;28;21032;-87
2022/08/04 12:00:18;;;;;;;9.43;8.90;;;36.60;33.90;;;;;;5080960;28;20511;-88
2022/08/04 12:03:10;;;;;;;10.67;10.17;;;36.20;34.70;;;;;;5081277;28;20419;-88
2022/08/04 12:05:59;;;;;;;10.37;9.50;;;36.40;34.80;;;;;;5062009;28;20522;-88
2022/08/04 12:08:58;;;;;;;10.70;10.20;;;36.70;35.20;;;;;;5071094;28;21038;-87
2022/08/04 12:11:41;;;;;;;10.53;9.87;;;36.50;34.60;;;;;;5083061;28;20512;-88
2022/08/04 12:14:48;;;;;;;10.80;10.30;;;36.50;34.80;;;;;;5068153;28;20476;-88
2022/08/04 12:17:33;;;;;;;10.50;10.00;;;36.20;35.10;;;;;;5080538;28;20465;-88
2022/08/04 12:20:05;;;;;;;11.23;10.73;;;36.20;35.20;;;;;;5071314;28;20909;-87
2022/08/04 12:22:34;;;;;;;11.37;10.70;;;36.30;35.40;;;;;;5072457;28;20410;-87
2022/08/04 12:25:07;;;;;;;11.63;10.63;;;36.30;35.50;;;;;;5077421;28;20464;-87
2022/08/04 12:27:40;;;;;;;10.80;10.30;;;36.40;35.40;;;;;;5086003;28;20438;-88
2022/08/04 12:30:07;;;;;;;10.70;10.20;;;36.60;35.20;;;;;;5081074;28;20452;-87
2022/08/04 12:32:44;;;;;;;10.20;9.60;;;36.50;34.90;;;;;;5073909;28;20429;-88
2022/08/04 12:35:22;;;;;;;10.57;10.07;;;36.40;35.10;;;;;;5060824;28;20430;-88
2022/08/04 12:38:01;;;;;;;10.47;9.90;;;36.40;34.90;;;;;;5067371;28;20520;-88
2022/08/04 12:40:47;;;;;;;10.67;10.17;;;36.50;35.30;;;;;;5079030;28;20435;-88
2022/08/04 12:43:42;;;;;;;10.80;10.20;;;36.30;35.40;;;;;;5087410;28;20444;-88
2022/08/04 12:46:25;;;;;;;10.37;9.73;;;36.60;34.90;;;;;;5076305;28;20548;-88
2022/08/04 12:48:51;;;;;;;11.57;10.63;;;37.10;34.00;;;;;;5075209;28;20463;-87
2022/08/04 12:51:18;;;;;;;11.00;10.37;;;37.40;34.00;;;;;;5078256;28;20420;-88
2022/08/04 12:53:46;;;;;;;10.40;9.90;;;37.80;34.20;;;;;;5063944;28;20444;-88
2022/08/04 12:56:14;;;;;;;11.20;10.70;;;37.90;34.10;;;;;;5082198;28;20822;-87
2022/08/04 12:58:43;;;;;;;10.33;9.83;;;37.20;34.00;;;;;;5065496;28;20584;-88
2022/08/04 13:01:18;;;;;;;10.00;9.40;;;37.00;34.90;;;;;;5074571;28;20501;-88
2022/08/04 13:04:02;;;;;;;10.80;10.00;;;36.80;34.70;;;;;;5080840;28;20426;-88
2022/08/04 13:06:32;;;;;;;10.93;10.23;;;36.90;34.40;;;;;;5060921;28;20419;-88
2022/08/04 13:09:08;;;;;;;10.30;9.53;;;37.30;34.40;;;;;;5067528;28;20466;-88
2022/08/04 13:11:37;;;;;;;10.00;9.50;;;37.40;33.70;;;;;;5075867;28;20432;-88
2022/08/04 13:14:05;;;;;;;10.80;10.20;;;37.30;34.20;;;;;;5080652;28;20430;-88
2022/08/04 13:16:33;;;;;;;10.90;10.10;;;37.20;34.80;;;;;;5081647;28;20458;-88
2022/08/04 13:18:59;;;;;;;10.53;9.93;;;36.50;34.80;;;;;;5076937;28;20448;-87
2022/08/04 13:21:28;;;;;;;9.50;9.10;;;35.80;35.80;;;;;;5077225;28;20450;-87
2022/08/04 13:24:02;;;;;;;10.17;9.57;;;35.40;36.70;;;;;;5071479;28;20434;-88
2022/08/04 13:26:28;;;;;;;10.40;9.70;;;35.70;36.60;;;;;;5076211;28;20828;-88
2022/08/04 13:28:59;;;;;;;10.03;9.30;;;36.20;36.20;;;;;;5084122;28;20461;-87
2022/08/04 13:31:27;;;;;;;9.30;8.90;;;36.50;36.60;;;;;;5078569;28;20459;-87